Time;durP1;ratioP1;P1;durP2;ratioP2;P2;SDS_P1;SDS_P2;PMS_P1;PMS_P2;Temp;Humidity;BMP_temperature;BMP_pressure;BME280_temperature;BME280_humidity;BME280_pressure;Samples;Min_cycle;Max_cycle;Signal;HPM_P1;HPM_P2
2021/12/01 00:03:37;;;;;;;1.03;0.50;;;11.80;99.90;;;;;;6331438;22;20292;-91
2021/12/01 00:06:10;;;;;;;1.10;0.60;;;11.80;99.90;;;;;;6322077;22;20185;-89
2021/12/01 00:08:42;;;;;;;3.43;3.13;;;11.80;99.90;;;;;;6325053;22;20165;-89
2021/12/01 00:11:14;;;;;;;1.70;0.50;;;11.80;99.90;;;;;;6334855;22;20171;-88
2021/12/01 00:13:47;;;;;;;1.27;0.50;;;11.80;99.90;;;;;;6333544;22;20243;-90
2021/12/01 00:16:18;;;;;;;0.70;0.60;;;11.80;99.90;;;;;;6323842;22;20490;-91
2021/12/01 00:18:54;;;;;;;1.00;0.60;;;11.80;99.90;;;;;;6325742;22;20223;-89
2021/12/01 00:21:27;;;;;;;0.70;0.60;;;11.70;99.90;;;;;;6300484;22;20166;-89
2021/12/01 00:23:59;;;;;;;0.60;0.40;;;11.70;99.90;;;;;;6325148;22;20296;-89
2021/12/01 00:26:33;;;;;;;1.50;0.40;;;11.70;99.90;;;;;;6326301;22;20194;-89
2021/12/01 00:29:06;;;;;;;1.50;0.70;;;11.70;99.90;;;;;;6312544;22;20273;-86
2021/12/01 00:31:41;;;;;;;0.50;0.50;;;11.70;99.90;;;;;;6326382;22;20166;-88
2021/12/01 00:34:31;;;;;;;1.60;0.50;;;11.70;99.90;;;;;;6327854;22;20174;-85
2021/12/01 00:37:03;;;;;;;1.30;0.53;;;11.70;99.90;;;;;;6295092;22;20175;-87
2021/12/01 00:39:37;;;;;;;0.50;0.50;;;11.70;99.90;;;;;;6298378;22;20667;-86
2021/12/01 00:42:13;;;;;;;3.70;0.60;;;11.70;99.90;;;;;;6298012;22;20163;-87
2021/12/01 00:44:59;;;;;;;1.43;1.33;;;11.70;99.90;;;;;;6298342;22;20185;-87
2021/12/01 00:47:43;;;;;;;2.50;2.17;;;11.80;99.90;;;;;;6296115;22;20171;-88
2021/12/01 00:50:21;;;;;;;1.47;0.70;;;11.80;99.90;;;;;;6295663;22;20238;-88
2021/12/01 00:52:53;;;;;;;1.33;0.60;;;11.90;99.90;;;;;;6301644;22;20175;-87
2021/12/01 00:55:26;;;;;;;0.60;0.40;;;11.80;99.90;;;;;;6295579;22;20197;-88
2021/12/01 00:57:58;;;;;;;0.87;0.53;;;11.80;99.90;;;;;;6296706;22;20179;-88
2021/12/01 01:00:33;;;;;;;0.80;0.50;;;11.80;99.90;;;;;;6266100;22;20184;-88
2021/12/01 01:03:05;;;;;;;0.70;0.70;;;11.90;99.90;;;;;;6294681;22;20220;-88
2021/12/01 01:05:39;;;;;;;0.80;0.50;;;11.90;99.90;;;;;;6293402;22;20168;-87
2021/12/01 01:08:15;;;;;;;2.00;0.60;;;11.90;99.90;;;;;;6294044;22;20204;-88
2021/12/01 01:11:09;;;;;;;0.70;0.50;;;11.90;99.90;;;;;;6293457;22;20163;-88
2021/12/01 01:16:32;;;;;;;0.83;0.70;;;11.90;99.90;;;;;;6296151;22;20168;-88
2021/12/01 01:19:11;;;;;;;0.70;0.60;;;12.00;99.90;;;;;;6252203;22;20242;-88
2021/12/01 01:21:50;;;;;;;1.53;1.43;;;11.90;99.90;;;;;;6295852;22;20179;-87
2021/12/01 01:24:23;;;;;;;2.23;0.67;;;12.00;99.90;;;;;;6294854;22;20231;-88
2021/12/01 01:26:57;;;;;;;1.17;0.63;;;12.00;99.90;;;;;;6296596;22;20659;-88
2021/12/01 01:29:34;;;;;;;1.10;1.00;;;12.00;99.90;;;;;;6292240;22;20186;-89
2021/12/01 01:32:07;;;;;;;2.87;2.67;;;12.00;99.90;;;;;;6294219;22;20175;-87
2021/12/01 01:34:39;;;;;;;1.67;1.57;;;12.00;99.90;;;;;;6260828;22;20202;-87
2021/12/01 01:37:15;;;;;;;1.70;1.17;;;12.10;99.90;;;;;;6283167;22;20211;-89
2021/12/01 01:39:47;;;;;;;1.30;1.17;;;12.00;99.90;;;;;;6296400;22;20177;-89
2021/12/01 01:42:21;;;;;;;1.53;1.10;;;12.10;99.90;;;;;;6297614;22;20173;-89
2021/12/01 01:44:54;;;;;;;1.13;0.70;;;12.00;99.90;;;;;;6287673;22;20493;-87
2021/12/01 01:47:25;;;;;;;1.13;1.00;;;12.00;99.90;;;;;;6255759;22;20252;-88
2021/12/01 01:52:54;;;;;;;1.83;0.80;;;12.00;99.90;;;;;;6292946;22;20195;-88
2021/12/01 01:55:29;;;;;;;2.07;1.80;;;12.00;99.90;;;;;;6293541;22;20226;-87
2021/12/01 02:00:51;;;;;;;1.43;0.80;;;12.00;99.90;;;;;;6289205;22;20206;-88
2021/12/01 02:03:25;;;;;;;3.37;0.87;;;12.00;99.90;;;;;;6258130;22;20218;-89
2021/12/01 02:05:57;;;;;;;2.50;2.30;;;12.00;99.90;;;;;;6302353;22;20541;-89
2021/12/01 02:08:32;;;;;;;3.70;1.20;;;12.00;99.90;;;;;;6316513;22;20178;-87
2021/12/01 02:11:05;;;;;;;20.83;4.87;;;12.00;99.90;;;;;;6310517;22;20170;-89
2021/12/01 02:13:37;;;;;;;1.30;1.10;;;12.10;99.90;;;;;;6312525;22;20167;-87
2021/12/01 02:16:09;;;;;;;1.10;0.73;;;12.10;99.90;;;;;;6313672;22;20182;-87
2021/12/01 02:18:42;;;;;;;1.10;0.90;;;12.10;99.90;;;;;;6313311;22;20201;-86
2021/12/01 02:21:18;;;;;;;3.17;1.90;;;12.00;99.90;;;;;;6323528;22;20174;-86
2021/12/01 02:23:51;;;;;;;1.37;0.90;;;12.10;99.90;;;;;;6326567;22;20174;-85
2021/12/01 02:26:24;;;;;;;4.80;1.03;;;12.10;99.90;;;;;;6329218;22;20190;-85
2021/12/01 02:28:58;;;;;;;2.47;0.80;;;12.00;99.90;;;;;;6333591;22;20177;-84
2021/12/01 02:31:33;;;;;;;1.83;0.90;;;12.00;99.90;;;;;;6331382;22;20163;-86
2021/12/01 02:34:07;;;;;;;0.80;0.73;;;12.00;99.90;;;;;;6317228;22;20227;-86
2021/12/01 02:36:43;;;;;;;1.83;0.80;;;12.00;99.90;;;;;;6318790;22;20201;-86
2021/12/01 02:39:16;;;;;;;1.63;0.80;;;12.00;99.90;;;;;;6317470;22;20639;-91
2021/12/01 02:42:00;;;;;;;1.03;0.97;;;12.10;99.90;;;;;;6293657;22;20163;-91
2021/12/01 02:44:33;;;;;;;1.37;0.80;;;12.10;99.90;;;;;;6319483;22;20421;-89
2021/12/01 02:47:08;;;;;;;0.90;0.90;;;12.10;99.90;;;;;;6317940;22;20234;-91
2021/12/01 02:49:40;;;;;;;1.20;0.97;;;12.10;99.90;;;;;;6311744;22;20187;-90
2021/12/01 02:52:17;;;;;;;0.80;0.70;;;12.10;99.90;;;;;;6290853;22;20230;-90
2021/12/01 02:54:49;;;;;;;4.83;4.43;;;12.10;99.90;;;;;;6318994;22;20208;-90
2021/12/01 02:57:21;;;;;;;1.37;0.80;;;12.10;99.90;;;;;;6314563;22;20176;-91
2021/12/01 02:59:56;;;;;;;0.90;0.73;;;12.20;99.90;;;;;;6313495;22;20226;-90
2021/12/01 03:02:30;;;;;;;1.27;0.83;;;12.10;99.90;;;;;;6321829;22;20314;-90
2021/12/01 03:05:03;;;;;;;0.80;0.77;;;12.20;99.90;;;;;;6291285;22;20186;-90
2021/12/01 03:07:40;;;;;;;0.73;0.73;;;12.10;99.90;;;;;;6316950;22;20167;-90
2021/12/01 03:10:13;;;;;;;1.00;0.90;;;12.10;99.90;;;;;;6314168;22;20186;-90
2021/12/01 03:15:45;;;;;;;1.03;0.60;;;12.10;99.90;;;;;;6324864;22;20249;-90
2021/12/01 03:18:20;;;;;;;1.60;1.07;;;12.10;99.90;;;;;;6322271;22;20491;-91
2021/12/01 03:20:54;;;;;;;3.00;0.83;;;12.10;99.90;;;;;;6298217;22;20184;-91
2021/12/01 03:23:33;;;;;;;1.90;0.63;;;12.10;99.90;;;;;;6328235;22;20229;-90
2021/12/01 03:26:13;;;;;;;1.13;0.70;;;12.20;99.90;;;;;;6290458;22;20174;-91
2021/12/01 03:28:48;;;;;;;0.83;0.67;;;12.10;99.90;;;;;;6315753;22;20182;-91
2021/12/01 03:31:21;;;;;;;1.10;1.00;;;12.20;99.90;;;;;;6290245;22;20166;-90
2021/12/01 03:33:53;;;;;;;0.87;0.70;;;12.10;99.90;;;;;;6318191;22;20170;-92
2021/12/01 03:36:29;;;;;;;1.60;1.07;;;12.10;99.90;;;;;;6323874;22;20219;-91
2021/12/01 03:39:08;;;;;;;1.03;0.93;;;12.10;99.90;;;;;;6331083;22;20178;-92
2021/12/01 03:41:43;;;;;;;1.70;0.73;;;12.10;99.90;;;;;;6303131;22;20170;-91
2021/12/01 03:44:27;;;;;;;2.73;0.93;;;12.10;99.90;;;;;;6326311;22;20245;-91
2021/12/01 03:47:08;;;;;;;2.57;0.90;;;12.00;99.90;;;;;;6302934;22;20167;-91
2021/12/01 03:49:43;;;;;;;1.47;0.90;;;12.10;99.90;;;;;;6326415;22;20174;-92
2021/12/01 03:52:18;;;;;;;3.27;1.00;;;12.10;99.90;;;;;;6327444;22;20174;-90
2021/12/01 03:54:58;;;;;;;1.77;0.97;;;12.00;99.90;;;;;;6322484;22;20213;-91
2021/12/01 03:57:30;;;;;;;2.70;0.90;;;12.10;99.90;;;;;;6325875;22;20225;-92
2021/12/01 04:00:02;;;;;;;1.53;1.43;;;12.00;99.90;;;;;;6327084;22;20233;-92
2021/12/01 04:02:35;;;;;;;1.87;1.30;;;12.00;99.90;;;;;;6326815;22;20174;-90
2021/12/01 04:05:10;;;;;;;2.50;2.30;;;11.90;99.90;;;;;;6325518;22;20167;-91
2021/12/01 04:07:44;;;;;;;1.30;1.20;;;11.90;99.90;;;;;;6319867;22;20178;-91
2021/12/01 04:10:20;;;;;;;1.77;1.00;;;11.80;99.90;;;;;;6325214;22;20174;-92
2021/12/01 04:12:54;;;;;;;2.50;1.50;;;11.70;99.90;;;;;;6324509;22;20170;-90
2021/12/01 04:18:24;;;;;;;1.43;1.00;;;11.50;99.90;;;;;;6319963;22;20178;-90
2021/12/01 04:20:58;;;;;;;3.37;1.37;;;11.50;99.90;;;;;;6327131;22;20217;-91
2021/12/01 04:23:34;;;;;;;3.53;1.33;;;11.40;99.90;;;;;;6325835;22;20257;-91
2021/12/01 04:26:15;;;;;;;4.03;1.20;;;11.40;99.90;;;;;;6321300;22;20229;-92
2021/12/01 04:28:47;;;;;;;5.53;1.30;;;11.40;99.90;;;;;;6321383;22;20186;-89
2021/12/01 04:31:21;;;;;;;1.50;1.00;;;11.40;99.90;;;;;;6322036;22;20642;-90
2021/12/01 04:34:06;;;;;;;5.13;1.60;;;11.40;99.90;;;;;;6324365;22;20177;-91
2021/12/01 04:36:41;;;;;;;2.00;1.03;;;11.40;99.90;;;;;;6335325;22;20186;-90
2021/12/01 04:39:16;;;;;;;1.83;1.00;;;11.50;99.90;;;;;;6310138;22;20170;-91
2021/12/01 04:42:03;;;;;;;5.07;2.30;;;11.50;99.90;;;;;;6335464;22;20181;-91
2021/12/01 04:44:37;;;;;;;4.13;1.53;;;11.50;99.90;;;;;;6329024;22;20162;-91
2021/12/01 04:47:17;;;;;;;3.33;1.37;;;11.50;99.90;;;;;;6309377;22;20181;-91
2021/12/01 04:49:52;;;;;;;5.50;1.10;;;11.50;99.90;;;;;;6322894;22;20511;-90
2021/12/01 04:52:23;;;;;;;4.03;1.23;;;11.50;99.90;;;;;;6316054;22;20242;-91
2021/12/01 04:54:58;;;;;;;2.57;1.07;;;11.50;99.90;;;;;;6317965;22;20189;-90
2021/12/01 04:57:42;;;;;;;3.53;1.73;;;11.50;99.90;;;;;;6319111;22;20226;-90
2021/12/01 05:00:19;;;;;;;5.20;1.33;;;11.50;99.90;;;;;;6316731;22;20249;-91
2021/12/01 05:02:52;;;;;;;2.73;1.20;;;11.40;99.90;;;;;;6316744;22;20200;-91
2021/12/01 05:05:24;;;;;;;5.33;1.30;;;11.50;99.90;;;;;;6312933;22;20174;-90
2021/12/01 05:07:56;;;;;;;4.23;1.90;;;11.50;99.90;;;;;;6316093;22;20176;-91
2021/12/01 05:10:36;;;;;;;4.30;1.70;;;11.50;99.90;;;;;;6316485;22;20174;-91
2021/12/01 05:13:10;;;;;;;2.17;1.30;;;11.50;99.90;;;;;;6293629;22;20185;-90
2021/12/01 05:15:45;;;;;;;4.43;1.47;;;11.60;99.90;;;;;;6287568;22;20197;-91
2021/12/01 05:18:18;;;;;;;3.93;1.60;;;11.60;99.90;;;;;;6312130;22;20511;-91
2021/12/01 05:20:51;;;;;;;4.83;1.63;;;11.60;99.90;;;;;;6287867;22;20158;-91
2021/12/01 05:23:22;;;;;;;4.87;1.57;;;11.60;99.90;;;;;;6315644;22;20193;-91
2021/12/01 05:25:54;;;;;;;2.33;1.30;;;11.60;99.90;;;;;;6312054;22;20188;-91
2021/12/01 05:28:29;;;;;;;2.50;1.03;;;11.60;99.90;;;;;;6316028;22;20167;-91
2021/12/01 05:31:01;;;;;;;4.37;1.33;;;11.60;99.90;;;;;;6319165;22;20632;-91
2021/12/01 05:33:33;;;;;;;3.20;1.17;;;11.70;99.90;;;;;;6316422;22;20174;-90
2021/12/01 05:36:06;;;;;;;2.93;1.57;;;11.70;99.90;;;;;;6298936;22;20229;-90
2021/12/01 05:38:38;;;;;;;5.53;1.30;;;11.70;99.90;;;;;;6326724;22;20207;-90
2021/12/01 05:41:10;;;;;;;4.53;1.30;;;11.70;99.90;;;;;;6302732;22;20190;-91
2021/12/01 05:43:48;;;;;;;4.77;1.73;;;11.80;99.90;;;;;;6296347;22;20179;-92
2021/12/01 05:46:22;;;;;;;5.80;1.23;;;11.70;99.90;;;;;;6298072;22;20283;-92
2021/12/01 05:48:56;;;;;;;2.30;1.30;;;11.80;99.90;;;;;;6294531;22;20206;-91
2021/12/01 05:51:28;;;;;;;3.70;1.20;;;11.80;99.90;;;;;;6291661;22;20202;-92
2021/12/01 05:54:01;;;;;;;3.57;1.20;;;11.80;99.90;;;;;;6295259;22;20175;-92
2021/12/01 05:56:35;;;;;;;4.13;1.20;;;11.80;99.90;;;;;;6297481;22;20203;-91
2021/12/01 05:59:16;;;;;;;1.70;1.13;;;11.80;99.90;;;;;;6300126;22;20167;-91
2021/12/01 06:01:49;;;;;;;4.27;1.07;;;11.80;99.90;;;;;;6285910;22;20254;-90
2021/12/01 06:04:20;;;;;;;2.33;1.10;;;11.80;99.90;;;;;;6284544;22;20229;-91
2021/12/01 06:06:52;;;;;;;3.37;1.50;;;11.80;99.90;;;;;;6286807;22;20171;-91
2021/12/01 06:09:24;;;;;;;3.07;1.10;;;11.70;99.90;;;;;;6284238;22;20171;-91
2021/12/01 06:11:56;;;;;;;3.03;1.33;;;11.70;99.90;;;;;;6283248;22;20641;-89
2021/12/01 06:14:30;;;;;;;3.57;1.27;;;11.80;99.90;;;;;;6281616;22;20163;-90
2021/12/01 06:17:01;;;;;;;2.57;0.90;;;11.90;99.90;;;;;;6285579;22;20286;-89
2021/12/01 06:19:34;;;;;;;1.93;1.00;;;11.80;99.90;;;;;;6281345;22;20279;-90
2021/12/01 06:22:06;;;;;;;2.23;1.23;;;11.80;99.90;;;;;;6280942;22;20210;-90
2021/12/01 06:24:40;;;;;;;7.13;1.40;;;11.90;99.90;;;;;;6284698;22;20194;-92
2021/12/01 06:27:12;;;;;;;3.33;1.13;;;11.80;99.90;;;;;;6281583;22;20243;-91
2021/12/01 06:29:45;;;;;;;5.50;1.50;;;11.80;99.90;;;;;;6282066;22;20217;-90
2021/12/01 06:32:18;;;;;;;3.23;1.30;;;11.90;99.90;;;;;;6289249;22;20195;-91
2021/12/01 06:34:50;;;;;;;3.80;1.37;;;12.00;99.90;;;;;;6281635;22;20669;-90
2021/12/01 06:37:21;;;;;;;3.53;1.83;;;11.90;99.90;;;;;;6282607;22;20209;-91
2021/12/01 06:39:53;;;;;;;3.33;1.20;;;12.00;99.90;;;;;;6282852;22;20189;-90
2021/12/01 06:42:25;;;;;;;3.10;2.40;;;12.00;99.90;;;;;;6282141;22;20171;-91
2021/12/01 06:44:59;;;;;;;3.83;1.27;;;12.00;99.90;;;;;;6281108;22;20204;-91
2021/12/01 06:47:30;;;;;;;5.30;1.70;;;12.00;99.90;;;;;;6288591;22;20179;-92
2021/12/01 06:50:03;;;;;;;4.70;2.07;;;12.00;99.90;;;;;;6303313;22;20214;-91
2021/12/01 06:52:35;;;;;;;3.00;1.90;;;12.00;99.90;;;;;;6303328;22;20218;-91
2021/12/01 06:55:09;;;;;;;5.23;1.50;;;12.10;99.90;;;;;;6303057;22;20245;-91
2021/12/01 06:57:41;;;;;;;28.93;5.40;;;12.10;99.90;;;;;;6302233;22;20242;-90
2021/12/01 07:00:18;;;;;;;2.23;1.33;;;12.10;99.90;;;;;;6302342;22;20172;-90
2021/12/01 07:02:51;;;;;;;5.37;1.50;;;12.10;99.90;;;;;;6302177;22;20182;-90
2021/12/01 07:05:31;;;;;;;15.63;5.70;;;12.10;99.90;;;;;;6297044;22;20193;-91
2021/12/01 07:08:04;;;;;;;2.83;1.50;;;12.10;99.90;;;;;;6300688;22;20189;-91
2021/12/01 07:10:35;;;;;;;8.70;5.80;;;12.20;99.90;;;;;;6301304;22;20167;-91
2021/12/01 07:13:08;;;;;;;1.57;0.90;;;12.20;99.90;;;;;;6301945;22;20167;-90
2021/12/01 07:15:42;;;;;;;12.97;6.70;;;12.20;99.90;;;;;;6286280;22;20175;-90
2021/12/01 07:18:14;;;;;;;28.77;3.03;;;12.20;99.90;;;;;;6283062;22;20237;-90
2021/12/01 07:20:49;;;;;;;4.60;2.80;;;12.20;99.90;;;;;;6282529;22;20177;-90
2021/12/01 07:23:22;;;;;;;3.60;1.30;;;12.20;99.90;;;;;;6282744;22;20641;-90
2021/12/01 07:26:19;;;;;;;4.63;1.17;;;12.20;99.90;;;;;;6293710;22;20159;-92
2021/12/01 07:28:51;;;;;;;3.67;1.33;;;12.20;99.90;;;;;;6282277;22;20175;-90
2021/12/01 07:31:28;;;;;;;2.40;1.37;;;12.20;99.90;;;;;;6283798;22;20188;-90
2021/12/01 07:34:00;;;;;;;3.50;1.03;;;12.30;99.90;;;;;;6284121;22;20632;-90
2021/12/01 07:36:31;;;;;;;4.07;1.83;;;12.20;99.90;;;;;;6283172;22;20170;-90
2021/12/01 07:39:03;;;;;;;3.60;1.13;;;12.30;99.90;;;;;;6282871;22;20190;-90
2021/12/01 07:41:35;;;;;;;2.87;1.13;;;12.30;99.90;;;;;;6283143;22;20699;-90
2021/12/01 07:44:08;;;;;;;3.67;1.10;;;12.40;99.90;;;;;;6283094;22;20190;-91
2021/12/01 07:46:44;;;;;;;3.63;1.10;;;12.30;99.90;;;;;;6283701;22;20207;-88
2021/12/01 07:49:15;;;;;;;3.10;1.30;;;12.40;99.90;;;;;;6285267;22;20209;-90
2021/12/01 07:51:47;;;;;;;2.77;1.00;;;12.40;99.90;;;;;;6284304;22;20171;-91
2021/12/01 07:54:20;;;;;;;2.03;1.00;;;12.40;99.90;;;;;;6283170;22;20174;-90
2021/12/01 07:56:52;;;;;;;3.17;1.17;;;12.40;99.90;;;;;;6282489;22;20194;-90
2021/12/01 07:59:24;;;;;;;3.03;1.33;;;12.40;99.90;;;;;;6280864;22;20598;-90
2021/12/01 08:01:58;;;;;;;3.40;1.10;;;12.30;99.90;;;;;;6280827;22;20205;-91
2021/12/01 08:04:30;;;;;;;4.27;1.40;;;12.40;99.90;;;;;;6281672;22;20185;-91
2021/12/01 08:07:03;;;;;;;90.20;18.67;;;12.40;99.90;;;;;;6282662;22;20320;-92
2021/12/01 08:09:36;;;;;;;3.43;1.87;;;12.30;99.90;;;;;;6282622;22;20175;-90
2021/12/01 08:12:11;;;;;;;7.57;1.47;;;12.30;99.90;;;;;;6282536;22;20186;-90
2021/12/01 08:14:42;;;;;;;3.43;1.20;;;12.30;99.90;;;;;;6282138;22;20174;-89
2021/12/01 08:17:17;;;;;;;3.77;1.10;;;12.30;99.90;;;;;;6282755;22;20195;-90
2021/12/01 08:19:48;;;;;;;4.03;1.17;;;12.30;99.90;;;;;;6282565;22;20263;-91
2021/12/01 08:22:20;;;;;;;7.00;3.07;;;12.30;99.90;;;;;;6282728;22;20257;-90
2021/12/01 08:24:54;;;;;;;2.50;1.37;;;12.30;99.90;;;;;;6284445;22;20203;-90
2021/12/01 08:27:26;;;;;;;19.63;4.30;;;12.30;99.90;;;;;;6283396;22;20185;-90
2021/12/01 08:29:58;;;;;;;6.63;2.47;;;12.30;99.90;;;;;;6285034;22;20169;-90
2021/12/01 08:32:31;;;;;;;3.53;1.50;;;12.40;99.90;;;;;;6282826;22;20175;-89
2021/12/01 08:35:03;;;;;;;6.80;3.07;;;12.40;99.90;;;;;;6285449;22;20175;-89
2021/12/01 08:37:38;;;;;;;5.43;3.00;;;12.50;99.90;;;;;;6282701;22;20194;-90
2021/12/01 08:40:13;;;;;;;3.33;1.20;;;12.50;99.90;;;;;;6279748;22;20238;-89
2021/12/01 08:42:48;;;;;;;1.87;1.00;;;12.50;99.90;;;;;;6281705;22;20217;-91
2021/12/01 08:45:22;;;;;;;3.33;2.30;;;12.60;99.90;;;;;;6281006;22;20171;-91
2021/12/01 08:47:56;;;;;;;33.23;5.53;;;12.70;99.90;;;;;;6281299;22;20190;-90
2021/12/01 08:50:32;;;;;;;6.60;4.13;;;12.70;99.90;;;;;;6289002;22;20183;-89
2021/12/01 08:53:08;;;;;;;4.60;2.77;;;12.70;99.90;;;;;;6296103;22;20226;-91
2021/12/01 08:55:41;;;;;;;4.13;1.07;;;12.70;99.90;;;;;;6293415;22;20163;-90
2021/12/01 08:58:14;;;;;;;24.57;6.13;;;12.60;99.90;;;;;;6300430;22;20269;-90
2021/12/01 09:00:48;;;;;;;2.87;1.40;;;12.60;99.90;;;;;;6304165;22;20203;-91
2021/12/01 09:03:23;;;;;;;3.83;1.40;;;12.60;99.90;;;;;;6304560;22;20202;-90
2021/12/01 09:06:07;;;;;;;4.30;1.73;;;12.60;99.90;;;;;;6301286;22;20163;-90
2021/12/01 09:08:39;;;;;;;3.70;1.50;;;12.70;99.90;;;;;;6295607;22;20252;-90
2021/12/01 09:11:12;;;;;;;7.23;1.27;;;12.70;99.90;;;;;;6282961;22;20215;-90
2021/12/01 09:13:46;;;;;;;4.17;2.00;;;12.60;99.90;;;;;;6291874;22;20220;-90
2021/12/01 09:16:25;;;;;;;2.97;1.17;;;12.70;99.90;;;;;;6286475;22;20167;-89
2021/12/01 09:19:01;;;;;;;4.43;1.17;;;12.60;99.90;;;;;;6280741;22;20199;-89
2021/12/01 09:21:32;;;;;;;4.37;1.80;;;12.60;99.90;;;;;;6281706;22;20171;-90
2021/12/01 09:24:05;;;;;;;3.80;1.73;;;12.60;99.90;;;;;;6282828;22;20164;-89
2021/12/01 09:26:37;;;;;;;3.97;1.60;;;12.60;99.90;;;;;;6282614;22;20250;-91
2021/12/01 09:29:09;;;;;;;5.40;1.90;;;12.60;99.90;;;;;;6280549;22;20175;-90
2021/12/01 09:31:42;;;;;;;4.20;1.40;;;12.60;99.90;;;;;;6282459;22;20202;-90
2021/12/01 09:34:16;;;;;;;16.17;5.63;;;12.50;99.90;;;;;;6281581;22;20245;-90
2021/12/01 09:36:48;;;;;;;2.87;1.10;;;12.50;99.90;;;;;;6282693;22;20221;-89
2021/12/01 09:39:19;;;;;;;4.43;1.30;;;12.50;99.90;;;;;;6282804;22;20278;-89
2021/12/01 09:41:51;;;;;;;3.13;1.20;;;12.50;99.90;;;;;;6282180;22;20163;-89
2021/12/01 09:44:23;;;;;;;4.40;1.33;;;12.50;99.90;;;;;;6281773;22;20629;-89
2021/12/01 09:46:55;;;;;;;3.30;1.30;;;12.50;99.90;;;;;;6282770;22;20163;-88
2021/12/01 09:49:28;;;;;;;3.50;1.10;;;12.50;99.90;;;;;;6282248;22;20191;-90
2021/12/01 09:52:02;;;;;;;4.30;1.67;;;12.50;99.90;;;;;;6282724;22;20182;-90
2021/12/01 09:54:34;;;;;;;4.53;1.50;;;12.50;99.90;;;;;;6281969;22;20167;-89
2021/12/01 09:57:05;;;;;;;5.67;1.37;;;12.50;99.90;;;;;;6283095;22;20605;-90
2021/12/01 09:59:38;;;;;;;4.07;2.70;;;12.50;99.90;;;;;;6283002;22;20202;-91
2021/12/01 10:02:11;;;;;;;3.93;1.40;;;12.60;99.90;;;;;;6256408;22;20175;-90
2021/12/01 10:04:49;;;;;;;4.60;1.60;;;12.50;99.90;;;;;;6281645;22;20220;-90
2021/12/01 10:07:26;;;;;;;3.97;1.40;;;12.60;99.90;;;;;;6283443;22;20218;-90
2021/12/01 10:09:58;;;;;;;4.00;2.10;;;12.50;99.90;;;;;;6282070;22;20179;-90
2021/12/01 10:12:50;;;;;;;4.47;1.43;;;12.50;99.90;;;;;;6282291;22;20163;-90
2021/12/01 10:15:31;;;;;;;2.30;1.10;;;12.50;99.90;;;;;;6281135;22;20175;-90
2021/12/01 10:18:13;;;;;;;3.50;1.13;;;12.50;99.90;;;;;;6286144;22;20238;-90
2021/12/01 10:20:59;;;;;;;3.77;1.40;;;12.50;99.90;;;;;;6282280;22;20167;-90
2021/12/01 10:23:31;;;;;;;4.27;1.17;;;12.50;99.90;;;;;;6282006;22;20273;-90
2021/12/01 10:26:11;;;;;;;4.37;1.30;;;12.60;99.90;;;;;;6283262;22;20175;-90
2021/12/01 10:28:45;;;;;;;6.77;1.10;;;12.60;99.90;;;;;;6285041;22;20625;-91
2021/12/01 10:31:36;;;;;;;3.77;1.40;;;12.60;99.90;;;;;;6284747;22;20167;-91
2021/12/01 10:34:26;;;;;;;3.67;1.50;;;12.60;99.90;;;;;;6283990;22;20270;-93
2021/12/01 10:37:18;;;;;;;1.63;0.90;;;12.60;99.90;;;;;;6282325;22;20203;-90
2021/12/01 10:39:52;;;;;;;1.90;1.07;;;12.50;99.90;;;;;;6283306;22;20210;-91
2021/12/01 10:42:23;;;;;;;1.83;1.17;;;12.50;99.90;;;;;;6282027;22;20167;-90
2021/12/01 10:45:05;;;;;;;4.20;1.40;;;12.50;99.90;;;;;;6283617;22;20246;-90
2021/12/01 10:47:43;;;;;;;5.47;1.27;;;12.50;99.90;;;;;;6282349;22;20171;-90
2021/12/01 10:50:16;;;;;;;2.90;1.50;;;12.50;99.90;;;;;;6280682;22;20175;-90
2021/12/01 10:52:53;;;;;;;4.83;1.53;;;12.50;99.90;;;;;;6281867;22;20191;-90
2021/12/01 10:55:27;;;;;;;4.93;1.30;;;12.50;99.90;;;;;;6281069;22;20184;-91
2021/12/01 10:58:02;;;;;;;3.30;1.40;;;12.50;99.90;;;;;;6281871;22;20230;-90
2021/12/01 11:00:39;;;;;;;4.17;1.30;;;12.50;99.90;;;;;;6285322;22;20195;-90
2021/12/01 11:03:12;;;;;;;2.63;1.20;;;12.50;99.90;;;;;;6282977;22;20623;-90
2021/12/01 11:05:46;;;;;;;4.90;1.33;;;12.50;99.90;;;;;;6282974;22;21002;-90
2021/12/01 11:08:22;;;;;;;2.37;1.00;;;12.50;99.90;;;;;;6302717;22;20214;-91
2021/12/01 11:10:55;;;;;;;3.87;1.30;;;12.50;99.90;;;;;;6303392;22;20179;-90
2021/12/01 11:13:27;;;;;;;2.60;1.47;;;12.50;99.90;;;;;;6298414;22;20246;-89
2021/12/01 11:16:01;;;;;;;3.93;1.30;;;12.50;99.90;;;;;;6293452;22;20249;-89
2021/12/01 11:18:54;;;;;;;3.10;1.40;;;12.50;99.90;;;;;;6292662;22;20222;-89
2021/12/01 11:21:26;;;;;;;3.80;1.30;;;12.50;99.90;;;;;;6295963;22;20167;-91
2021/12/01 11:24:06;;;;;;;2.80;1.00;;;12.50;99.90;;;;;;6289430;22;20179;-91
2021/12/01 11:26:39;;;;;;;2.17;1.10;;;12.50;99.90;;;;;;6284413;22;20163;-91
2021/12/01 11:29:22;;;;;;;4.30;1.40;;;12.50;99.90;;;;;;6283516;22;20171;-91
2021/12/01 11:31:53;;;;;;;3.50;1.00;;;12.50;99.90;;;;;;6298149;22;20262;-91
2021/12/01 11:34:26;;;;;;;5.20;2.00;;;12.50;99.90;;;;;;6300728;22;20161;-91
2021/12/01 11:37:00;;;;;;;4.03;1.27;;;12.50;99.90;;;;;;6299784;22;20183;-92
2021/12/01 11:39:34;;;;;;;3.30;1.20;;;12.50;99.90;;;;;;6292234;22;20293;-92
2021/12/01 11:42:06;;;;;;;4.40;1.20;;;12.50;99.90;;;;;;6282800;22;20609;-91
2021/12/01 11:44:37;;;;;;;1.83;1.10;;;12.60;99.90;;;;;;6282630;22;20254;-92
2021/12/01 11:47:09;;;;;;;1.97;1.00;;;12.60;99.90;;;;;;6283563;22;20191;-91
2021/12/01 11:49:44;;;;;;;5.57;1.20;;;12.50;99.90;;;;;;6280720;22;20179;-91
2021/12/01 11:52:16;;;;;;;3.53;0.90;;;12.60;99.90;;;;;;6280233;22;20204;-91
2021/12/01 11:54:49;;;;;;;2.57;1.07;;;12.60;99.90;;;;;;6279033;22;20191;-91
2021/12/01 11:57:24;;;;;;;4.37;1.23;;;12.60;99.90;;;;;;6279661;22;20508;-92
2021/12/01 11:59:55;;;;;;;1.63;1.40;;;12.70;99.90;;;;;;6280961;22;20219;-91
2021/12/01 12:02:28;;;;;;;1.80;1.00;;;12.80;99.90;;;;;;6280312;22;20175;-91
2021/12/01 12:05:02;;;;;;;3.33;1.20;;;12.80;99.90;;;;;;6279910;22;20187;-91
2021/12/01 12:07:37;;;;;;;1.87;0.80;;;12.80;99.90;;;;;;6280484;22;20174;-92
2021/12/01 12:10:34;;;;;;;2.13;1.10;;;12.80;99.90;;;;;;6280838;22;20163;-92
2021/12/01 12:13:09;;;;;;;3.73;1.03;;;12.80;99.90;;;;;;6279900;22;20177;-92
2021/12/01 12:15:47;;;;;;;3.00;1.10;;;12.90;99.90;;;;;;6279258;22;20195;-90
2021/12/01 12:18:52;;;;;;;1.63;0.90;;;13.00;99.90;;;;;;6280233;22;20179;-92
2021/12/01 12:21:29;;;;;;;3.90;0.87;;;13.00;99.90;;;;;;6279914;22;20226;-91
2021/12/01 12:24:07;;;;;;;4.17;2.03;;;13.00;99.90;;;;;;6278864;22;20174;-92
2021/12/01 12:26:44;;;;;;;3.50;1.83;;;13.10;99.90;;;;;;6280547;22;20167;-93
2021/12/01 12:29:18;;;;;;;5.00;1.10;;;13.10;99.90;;;;;;6281405;22;20201;-92
2021/12/01 12:31:51;;;;;;;2.67;0.90;;;13.20;99.90;;;;;;6282155;22;20171;-92
2021/12/01 12:36:55;;;;;;;5.47;3.17;;;13.10;99.90;;;;;;6283939;22;20185;-91
2021/12/01 12:39:29;;;;;;;3.00;1.33;;;13.10;99.90;;;;;;6281914;22;20197;-91
2021/12/01 12:42:17;;;;;;;1.17;0.87;;;13.20;99.90;;;;;;6254818;22;20175;-91
2021/12/01 12:44:52;;;;;;;3.07;1.10;;;13.10;99.90;;;;;;6280931;22;20438;-91
2021/12/01 12:47:31;;;;;;;3.77;1.10;;;13.10;99.90;;;;;;6280219;22;20179;-91
2021/12/01 12:50:15;;;;;;;1.87;0.90;;;13.20;99.90;;;;;;6283287;22;20185;-91
2021/12/01 12:52:48;;;;;;;3.10;0.83;;;13.20;99.90;;;;;;6282289;22;20226;-90
2021/12/01 12:55:42;;;;;;;3.20;0.90;;;13.20;99.90;;;;;;6280784;22;20183;-91
2021/12/01 12:58:16;;;;;;;15.97;8.43;;;13.20;99.90;;;;;;6280772;22;20177;-91
2021/12/01 13:00:54;;;;;;;1.07;0.80;;;13.20;99.90;;;;;;6281883;22;20216;-91
2021/12/01 13:03:31;;;;;;;2.53;1.00;;;13.20;99.90;;;;;;6281172;22;20262;-91
2021/12/01 13:06:07;;;;;;;2.07;0.87;;;13.20;99.90;;;;;;6284161;22;20205;-91
2021/12/01 13:08:40;;;;;;;9.60;4.03;;;13.30;99.90;;;;;;6285611;22;20531;-91
2021/12/01 13:11:15;;;;;;;14.23;2.97;;;13.20;99.90;;;;;;6282367;22;20640;-91
2021/12/01 13:13:56;;;;;;;2.77;0.87;;;13.20;99.90;;;;;;6284580;22;20170;-92
2021/12/01 13:16:32;;;;;;;3.30;1.47;;;13.20;99.90;;;;;;6284717;22;20219;-92
2021/12/01 13:19:07;;;;;;;5.27;1.00;;;13.20;99.90;;;;;;6275870;22;20249;-91
2021/12/01 13:21:40;;;;;;;3.10;0.87;;;13.20;99.90;;;;;;6279837;22;20218;-91
2021/12/01 13:24:12;;;;;;;2.90;1.00;;;13.30;99.90;;;;;;6302787;22;20194;-94
2021/12/01 13:26:43;;;;;;;2.57;0.90;;;13.10;99.90;;;;;;6303542;22;20166;-92
2021/12/01 13:29:18;;;;;;;5.13;0.90;;;13.10;99.90;;;;;;6297733;22;20175;-91
2021/12/01 13:32:06;;;;;;;5.17;1.10;;;13.10;99.90;;;;;;6292495;22;20168;-92
2021/12/01 13:34:38;;;;;;;2.17;1.00;;;13.10;99.90;;;;;;6285341;22;20198;-92
2021/12/01 13:37:11;;;;;;;1.90;0.70;;;13.10;99.90;;;;;;6282658;22;20171;-91
2021/12/01 13:39:43;;;;;;;3.33;1.80;;;13.10;99.90;;;;;;6281792;22;20233;-92
2021/12/01 13:42:16;;;;;;;3.90;1.40;;;13.10;99.90;;;;;;6282171;22;20179;-92
2021/12/01 13:44:53;;;;;;;3.17;1.30;;;13.10;99.90;;;;;;6281200;22;20258;-92